Arab, Missouri
Current Conditions -  °F | °C
As of 3:53 AM on Friday 31 Oct 2014 (Local Time) from KPOF Reporting Station
Overcast Overcast  
Wind Chill: 47°   Ceiling: 11000
Heat Index: 49°   Visibility: 10mi
Dew Point: 45°   Wind: 6mph
Humidity: 86%   Direction: 340°NNW
Pressure: 30.02"   Gusts: NA
Location:  37.1241°N, 90.0834°W
Report Text: KPOF 310853Z AUTO 34005KT 10SM FEW048 OVC110 09/07 A3002 RMK AO2 SLP166 T00940072 51006
Loading
Personal Weather Stations






























Interactive Weather Map
Tropical Storm Tracking
New forecast layout! Learn more

10-Day Weather Forecast

Advertisements
Track Severe Weather on mobile